Ebro, Minnesota
Current Conditions -  °F | °C
As of 10:15 AM on Thursday 30 Oct 2014 (Local Time) from KFSE Reporting Station
Scattered Clouds Scattered Clouds  
Wind Chill: 26°   Ceiling: Unl
Heat Index: 34°   Visibility: 10mi
Dew Point: 32°   Wind: 9mph
Humidity: 93%   Direction: 350°N
Pressure: 30.18"   Gusts: NA
Location:  47.3892°N, 95.4294°W
Report Text: KFSE 301515Z AUTO 35008KT 10SM SCT110 01/00 A3018 RMK AO2
Loading
Personal Weather Stations






























Interactive Weather Map
Tropical Storm Tracking
New forecast layout! Learn more

10-Day Weather Forecast

Advertisements
Track Severe Weather on mobile